createdAt,value
2022-11-13T00:01:47.768Z,98541.09
2022-11-13T00:04:55.017Z,98543.00
2022-11-13T00:07:59.849Z,98547.91
2022-11-13T00:11:20.817Z,98550.09
2022-11-13T00:14:28.150Z,98547.78
2022-11-13T00:17:33.165Z,98532.94
2022-11-13T00:20:38.044Z,98537.34
2022-11-13T00:23:44.117Z,98541.84
2022-11-13T00:26:50.474Z,98538.31
2022-11-13T00:29:58.239Z,98529.63
2022-11-13T00:33:02.493Z,98534.84
2022-11-13T00:36:18.119Z,98526.22
2022-11-13T00:39:24.077Z,98521.25
2022-11-13T00:42:30.456Z,98527.56
2022-11-13T00:45:37.976Z,98520.00
2022-11-13T00:48:42.428Z,98523.44
2022-11-13T00:51:47.794Z,98529.50
2022-11-13T00:54:52.712Z,98525.38
2022-11-13T00:57:57.396Z,98524.25
2022-11-13T01:01:08.504Z,98526.97
2022-11-13T01:04:14.439Z,98526.16
2022-11-13T01:07:22.344Z,98527.25
2022-11-13T01:10:26.824Z,98518.72
2022-11-13T01:13:32.132Z,98515.69
2022-11-13T01:16:37.286Z,98515.81
2022-11-13T01:19:42.324Z,98513.47
2022-11-13T01:22:46.477Z,98513.75
2022-11-13T01:25:50.720Z,98507.81
2022-11-13T01:28:57.147Z,98502.75
2022-11-13T01:32:02.194Z,98498.63
2022-11-13T01:35:06.855Z,98491.75
2022-11-13T01:38:11.577Z,98488.44
2022-11-13T01:41:23.409Z,98484.31
2022-11-13T01:44:47.659Z,98486.38
2022-11-13T01:47:51.990Z,98482.25
2022-11-13T01:50:58.807Z,98472.06
2022-11-13T01:54:08.719Z,98473.28
2022-11-13T01:57:15.954Z,98471.91
2022-11-13T02:00:20.440Z,98466.25
2022-11-13T02:03:27.937Z,98474.47
2022-11-13T02:06:42.714Z,98462.53
2022-11-13T02:09:56.432Z,98461.81
2022-11-13T02:13:01.624Z,98457.69
2022-11-13T02:16:08.193Z,98461.41
2022-11-13T02:19:35.323Z,98464.00
2022-11-13T02:22:49.484Z,98463.06
2022-11-13T02:25:54.889Z,98459.75
2022-11-13T02:29:01.154Z,98459.16
2022-11-13T02:32:05.846Z,98451.50
2022-11-13T02:35:10.339Z,98450.94
2022-11-13T02:38:14.594Z,98441.69
2022-11-13T02:41:20.532Z,98434.97
2022-11-13T02:44:28.491Z,98438.53
2022-11-13T02:47:33.718Z,98430.84
2022-11-13T02:50:38.331Z,98435.25
2022-11-13T02:53:45.996Z,98437.56
2022-11-13T02:56:50.811Z,98425.66
2022-11-13T02:59:55.065Z,98436.06
2022-11-13T03:02:59.506Z,98424.00
2022-11-13T03:06:05.843Z,98428.25
2022-11-13T03:09:10.146Z,98423.88
2022-11-13T03:12:14.655Z,98428.13
2022-11-13T03:15:19.350Z,98424.56
2022-11-13T03:18:24.492Z,98414.16
2022-11-13T03:21:32.252Z,98418.41
2022-11-13T03:24:36.817Z,98421.00
2022-11-13T03:27:44.423Z,98415.81
2022-11-13T03:30:49.034Z,98405.25
2022-11-13T03:33:57.399Z,98407.03
2022-11-13T03:37:01.988Z,98403.50
2022-11-13T03:40:07.684Z,98399.94
2022-11-13T03:43:12.911Z,98400.59
2022-11-13T03:46:18.738Z,98393.75
2022-11-13T03:49:22.949Z,98399.94
2022-11-13T03:52:27.200Z,98396.63
2022-11-13T03:55:32.186Z,98408.00
2022-11-13T03:58:40.293Z,98398.81
2022-11-13T04:01:45.021Z,98400.44
2022-11-13T04:04:51.113Z,98396.19
2022-11-13T04:07:57.008Z,98392.88
2022-11-13T04:11:07.846Z,98389.34
2022-11-13T04:14:11.872Z,98384.25
2022-11-13T04:17:16.242Z,98383.00
2022-11-13T04:20:21.587Z,98385.72
2022-11-13T04:23:26.105Z,98384.06
2022-11-13T04:26:30.781Z,98389.28
2022-11-13T04:29:35.069Z,98388.44
2022-11-13T04:32:42.916Z,98385.97
2022-11-13T04:35:48.573Z,98386.13
2022-11-13T04:38:53.312Z,98379.00
2022-11-13T04:42:17.394Z,98397.91
2022-11-13T04:45:24.009Z,98404.06
2022-11-13T04:48:30.588Z,98394.22
2022-11-13T04:51:35.973Z,98384.50
2022-11-13T04:54:41.132Z,98388.63
2022-11-13T04:57:45.786Z,98379.88
2022-11-13T05:00:51.079Z,98374.81
2022-11-13T05:03:55.615Z,98364.50
2022-11-13T05:07:00.251Z,98358.75
2022-11-13T05:10:06.272Z,98362.97
2022-11-13T05:13:10.451Z,98360.94
2022-11-13T05:16:15.515Z,98371.63
2022-11-13T05:19:20.383Z,98369.47
2022-11-13T05:22:25.156Z,98373.56
2022-11-13T05:25:30.373Z,98376.88
2022-11-13T05:28:35.297Z,98371.69
2022-11-13T05:31:41.361Z,98361.25
2022-11-13T05:34:47.023Z,98355.91
2022-11-13T05:37:53.165Z,98357.44
2022-11-13T05:41:18.894Z,98350.31
2022-11-13T05:44:23.607Z,98345.94
2022-11-13T05:47:28.134Z,98354.44
2022-11-13T05:50:32.572Z,98348.41
2022-11-13T05:53:38.399Z,98342.22
2022-11-13T05:56:44.628Z,98344.84
2022-11-13T05:59:49.044Z,98340.47
2022-11-13T06:02:53.993Z,98345.69
2022-11-13T06:06:00.527Z,98340.34
2022-11-13T06:09:06.644Z,98341.16
2022-11-13T06:12:11.784Z,98345.41
2022-11-13T06:15:16.832Z,98340.19
2022-11-13T06:18:26.690Z,98345.97
2022-11-13T06:21:34.812Z,98327.63
2022-11-13T06:24:40.544Z,98334.88
2022-11-13T06:27:44.688Z,98331.19
2022-11-13T06:30:51.985Z,98335.28
2022-11-13T06:34:00.432Z,98326.53
2022-11-13T06:37:05.399Z,98321.88
2022-11-13T06:40:10.391Z,98317.34
2022-11-13T06:43:15.088Z,98322.44
2022-11-13T06:46:21.809Z,98325.72
2022-11-13T06:49:26.647Z,98326.28
2022-11-13T06:52:30.958Z,98342.47
2022-11-13T06:55:35.610Z,98334.50
2022-11-13T06:58:40.881Z,98326.31
2022-11-13T07:01:45.376Z,98319.75
2022-11-13T07:04:49.700Z,98312.59
2022-11-13T07:07:55.797Z,98309.88
2022-11-13T07:11:02.171Z,98309.88
2022-11-13T07:14:11.134Z,98302.16
2022-11-13T07:17:16.810Z,98301.09
2022-11-13T07:20:21.250Z,98296.56
2022-11-13T07:23:26.299Z,98297.13
2022-11-13T07:26:31.075Z,98291.50
2022-11-13T07:29:36.635Z,98290.41
2022-11-13T07:32:44.412Z,98291.09
2022-11-13T07:35:48.556Z,98296.97
2022-11-13T07:38:59.188Z,98301.94
2022-11-13T07:42:04.462Z,98300.84
2022-11-13T07:45:09.529Z,98297.41
2022-11-13T07:48:15.022Z,98305.22
2022-11-13T07:51:19.472Z,98306.88
2022-11-13T07:54:24.414Z,98314.56
2022-11-13T07:57:28.850Z,98310.16
2022-11-13T08:00:35.481Z,98301.38
2022-11-13T08:03:40.818Z,98307.97
2022-11-13T08:06:51.927Z,98309.34
2022-11-13T08:10:00.450Z,98314.28
2022-11-13T08:13:07.625Z,98310.44
2022-11-13T08:16:11.876Z,98306.75
2022-11-13T08:19:16.374Z,98306.44
2022-11-13T08:22:21.091Z,98299.19
2022-11-13T08:25:29.610Z,98294.50
2022-11-13T08:28:37.185Z,98302.19
2022-11-13T08:31:44.193Z,98301.91
2022-11-13T08:34:49.645Z,98305.78
2022-11-13T08:37:54.806Z,98298.34
2022-11-13T08:41:05.800Z,98288.47
2022-11-13T08:44:14.996Z,98293.13
2022-11-13T08:47:23.423Z,98296.13
2022-11-13T08:50:32.885Z,98297.47
2022-11-13T08:53:37.768Z,98299.41
2022-11-13T08:56:42.786Z,98305.97
2022-11-13T08:59:49.870Z,98304.84
2022-11-13T09:03:00.455Z,98309.50
2022-11-13T09:06:06.583Z,98302.06
2022-11-13T09:09:11.716Z,98298.38
2022-11-13T09:12:16.100Z,98290.53
2022-11-13T09:15:24.280Z,98296.16
2022-11-13T09:18:30.475Z,98286.63
2022-11-13T09:21:39.692Z,98272.19
2022-11-13T09:24:46.793Z,98285.63
2022-11-13T09:28:01.447Z,98286.00
2022-11-13T09:31:07.699Z,98279.09
2022-11-13T09:34:15.798Z,98269.44
2022-11-13T09:37:23.961Z,98266.88
2022-11-13T09:40:33.722Z,98263.94
2022-11-13T09:44:15.733Z,98252.44
2022-11-13T09:47:35.945Z,98251.25
2022-11-13T09:50:41.638Z,98266.84
2022-11-13T09:53:46.577Z,98248.47
2022-11-13T09:57:19.419Z,98247.69
2022-11-13T10:00:33.030Z,98244.63
2022-11-13T10:04:00.768Z,98238.63
2022-11-13T10:07:13.841Z,98222.16
2022-11-13T10:10:21.669Z,98224.19
2022-11-13T10:13:32.696Z,98228.50
2022-11-13T10:17:02.775Z,98228.91
2022-11-13T10:20:24.688Z,98227.97
2022-11-13T10:23:35.326Z,98214.91
2022-11-13T10:26:39.829Z,98216.88
2022-11-13T10:29:48.990Z,98210.56
2022-11-13T10:32:54.011Z,98208.81
2022-11-13T10:36:14.287Z,98209.03
2022-11-13T10:39:18.493Z,98217.25
2022-11-13T10:42:24.140Z,98208.59
2022-11-13T10:45:28.431Z,98205.00
2022-11-13T10:48:36.285Z,98196.97
2022-11-13T10:51:41.137Z,98189.94
2022-11-13T10:54:45.820Z,98186.84
2022-11-13T10:57:58.841Z,98177.78
2022-11-13T11:01:23.141Z,98183.34
2022-11-13T11:04:27.663Z,98172.53
2022-11-13T11:07:40.582Z,98170.50
2022-11-13T11:11:14.149Z,98168.84
2022-11-13T11:14:25.621Z,98158.97
2022-11-13T11:17:49.520Z,98157.47
2022-11-13T11:20:59.575Z,98153.03
2022-11-13T11:24:25.726Z,98157.78
2022-11-13T11:27:37.440Z,98155.81
2022-11-13T11:30:56.238Z,98149.41
2022-11-13T11:34:21.795Z,98160.09
2022-11-13T11:37:36.804Z,98150.56
2022-11-13T11:40:52.040Z,98151.53
2022-11-13T11:44:15.659Z,98137.94
2022-11-13T11:47:20.565Z,98134.50
2022-11-13T11:51:02.889Z,98131.03
2022-11-13T11:54:27.691Z,98115.94
2022-11-13T11:57:55.322Z,98121.66
2022-11-13T12:01:14.258Z,98112.44
2022-11-13T12:04:32.174Z,98096.88
2022-11-13T12:07:51.523Z,98103.75
2022-11-13T12:11:19.818Z,98100.94
2022-11-13T12:14:58.071Z,98085.00
2022-11-13T12:18:12.170Z,98080.41
2022-11-13T12:21:22.495Z,98065.31
2022-11-13T12:24:51.482Z,98068.75
2022-11-13T12:28:05.893Z,98071.03
2022-11-13T12:31:47.972Z,98070.50
2022-11-13T12:35:16.734Z,98060.63
2022-11-13T12:38:39.908Z,98063.72
2022-11-13T12:41:59.179Z,98059.28
2022-11-13T12:45:46.278Z,98061.56
2022-11-13T12:48:50.677Z,98066.66
2022-11-13T12:52:01.471Z,98058.63
2022-11-13T12:55:25.884Z,98047.09
2022-11-13T12:58:32.674Z,98048.53
2022-11-13T13:01:48.266Z,98036.22
2022-11-13T13:05:13.754Z,98040.50
2022-11-13T13:08:39.934Z,98045.56
2022-11-13T13:12:24.153Z,98034.88
2022-11-13T13:15:40.854Z,98035.72
2022-11-13T13:18:45.664Z,98018.13
2022-11-13T13:21:50.519Z,98014.31
2022-11-13T13:25:25.992Z,98013.16
2022-11-13T13:28:32.155Z,98008.34
2022-11-13T13:31:55.527Z,98006.56
2022-11-13T13:35:13.883Z,98000.13
2022-11-13T13:38:52.253Z,98004.22
2022-11-13T13:41:59.901Z,97999.22
2022-11-13T13:45:25.557Z,97998.88
2022-11-13T13:48:31.880Z,98004.75
2022-11-13T13:51:52.523Z,97999.16
2022-11-13T13:54:58.470Z,97988.28
2022-11-13T13:58:08.561Z,97987.09
2022-11-13T14:01:20.053Z,97982.28
2022-11-13T14:04:48.791Z,97977.69
2022-11-13T14:07:52.950Z,97975.31
2022-11-13T14:10:56.991Z,97968.06
2022-11-13T14:14:17.465Z,97964.44
2022-11-13T14:17:24.683Z,97969.34
2022-11-13T14:20:30.000Z,97955.84
2022-11-13T14:23:52.312Z,97963.34
2022-11-13T14:26:58.646Z,97955.09
2022-11-13T14:30:04.643Z,97955.75
2022-11-13T14:33:11.345Z,97961.63
2022-11-13T14:36:25.458Z,97965.91
2022-11-13T14:39:33.768Z,97970.16
2022-11-13T14:42:43.689Z,97967.34
2022-11-13T14:45:58.812Z,97962.91
2022-11-13T14:49:03.716Z,97961.94
2022-11-13T14:52:20.873Z,97972.44
2022-11-13T14:55:31.604Z,97964.38
2022-11-13T14:58:43.925Z,97959.09
2022-11-13T15:01:55.712Z,97959.91
2022-11-13T15:04:59.890Z,97951.03
2022-11-13T15:08:04.249Z,97951.66
2022-11-13T15:11:12.922Z,97945.22
2022-11-13T15:14:19.463Z,97945.84
2022-11-13T15:17:24.265Z,97948.28
2022-11-13T15:20:30.623Z,97941.22
2022-11-13T15:23:35.091Z,97945.47
2022-11-13T15:26:40.648Z,97939.03
2022-11-13T15:29:45.456Z,97940.47
2022-11-13T15:32:53.900Z,97928.94
2022-11-13T15:35:58.618Z,97933.03
2022-11-13T15:39:06.631Z,97941.91
2022-11-13T15:42:15.519Z,97927.94
2022-11-13T15:45:19.800Z,97932.56
2022-11-13T15:48:24.191Z,97937.38
2022-11-13T15:51:42.275Z,97935.13
2022-11-13T15:54:46.861Z,97934.69
2022-11-13T15:57:51.260Z,97935.22
2022-11-13T16:00:55.852Z,97938.25
2022-11-13T16:04:02.423Z,97930.06
2022-11-13T16:07:12.469Z,97932.63
2022-11-13T16:10:16.899Z,97937.31
2022-11-13T16:13:21.211Z,97938.41
2022-11-13T16:16:28.197Z,97935.41
2022-11-13T16:19:32.594Z,97929.94
2022-11-13T16:22:36.903Z,97937.28
2022-11-13T16:25:44.049Z,97927.84
2022-11-13T16:29:12.833Z,97931.53
2022-11-13T16:32:16.680Z,97930.97
2022-11-13T16:35:21.366Z,97930.41
2022-11-13T16:38:25.855Z,97925.38
2022-11-13T16:41:31.454Z,97926.09
2022-11-13T16:44:35.728Z,97930.56
2022-11-13T16:47:40.130Z,97925.19
2022-11-13T16:50:44.408Z,97926.06
2022-11-13T16:53:48.593Z,97919.03
2022-11-13T16:56:52.965Z,97915.66
2022-11-13T16:59:57.315Z,97913.91
2022-11-13T17:03:01.739Z,97922.66
2022-11-13T17:06:06.098Z,97916.78
2022-11-13T17:09:11.203Z,97919.47
2022-11-13T17:12:18.011Z,97912.28
2022-11-13T17:15:26.459Z,97907.53
2022-11-13T17:18:30.580Z,97909.03
2022-11-13T17:21:36.991Z,97909.69
2022-11-13T17:24:43.363Z,97902.69
2022-11-13T17:27:47.673Z,97896.97
2022-11-13T17:30:56.474Z,97893.03
2022-11-13T17:34:03.215Z,97901.25
2022-11-13T17:37:07.622Z,97886.84
2022-11-13T17:40:12.216Z,97887.97
2022-11-13T17:43:16.677Z,97889.13
2022-11-13T17:46:21.033Z,97890.13
2022-11-13T17:49:25.205Z,97885.88
2022-11-13T17:52:29.666Z,97878.03
2022-11-13T17:55:34.077Z,97890.13
2022-11-13T17:58:40.064Z,97882.09
2022-11-13T18:01:44.249Z,97882.75
2022-11-13T18:04:50.209Z,97885.03
2022-11-13T18:07:54.147Z,97872.59
2022-11-13T18:10:58.930Z,97872.06
2022-11-13T18:14:03.288Z,97874.84
2022-11-13T18:17:07.573Z,97872.19
2022-11-13T18:20:11.997Z,97870.34
2022-11-13T18:23:16.691Z,97866.84
2022-11-13T18:26:20.951Z,97876.47
2022-11-13T18:29:25.372Z,97867.13
2022-11-13T18:32:29.753Z,97860.38
2022-11-13T18:35:33.895Z,97856.69
2022-11-13T18:38:38.239Z,97857.81
2022-11-13T18:41:42.685Z,97854.31
2022-11-13T18:44:46.984Z,97843.13
2022-11-13T18:47:51.623Z,97839.63
2022-11-13T18:50:59.741Z,97834.47
2022-11-13T18:54:09.784Z,97830.34
2022-11-13T18:57:14.966Z,97842.91
2022-11-13T19:00:19.393Z,97825.84
2022-11-13T19:03:24.593Z,97828.72
2022-11-13T19:06:28.860Z,97833.66
2022-11-13T19:09:33.035Z,97833.28
2022-11-13T19:12:38.078Z,97825.22
2022-11-13T19:15:42.978Z,97828.47
2022-11-13T19:18:52.975Z,97816.16
2022-11-13T19:21:57.350Z,97818.63
2022-11-13T19:25:03.464Z,97806.94
2022-11-13T19:28:07.688Z,97804.13
2022-11-13T19:31:15.447Z,97805.22
2022-11-13T19:34:20.063Z,97809.13
2022-11-13T19:37:24.341Z,97799.72
2022-11-13T19:40:29.008Z,97793.28
2022-11-13T19:43:38.388Z,97796.19
2022-11-13T19:46:42.798Z,97799.25
2022-11-13T19:49:47.237Z,97794.66
2022-11-13T19:52:51.829Z,97795.44
2022-11-13T19:55:56.401Z,97786.19
2022-11-13T19:59:00.555Z,97795.63
2022-11-13T20:02:05.073Z,97796.06
2022-11-13T20:05:10.287Z,97800.78
2022-11-13T20:08:14.913Z,97794.81
2022-11-13T20:11:19.286Z,97792.44
2022-11-13T20:14:23.681Z,97795.97
2022-11-13T20:17:28.151Z,97787.53
2022-11-13T20:20:32.618Z,97796.47
2022-11-13T20:23:38.244Z,97790.84
2022-11-13T20:26:42.991Z,97789.28
2022-11-13T20:29:47.057Z,97780.22
2022-11-13T20:32:51.307Z,97778.06
2022-11-13T20:35:55.753Z,97757.41
2022-11-13T20:38:59.900Z,97762.31
2022-11-13T20:42:05.518Z,97754.88
2022-11-13T20:45:10.310Z,97750.03
2022-11-13T20:48:14.328Z,97752.28
2022-11-13T20:51:27.313Z,97755.19
2022-11-13T20:54:31.487Z,97758.06
2022-11-13T20:57:40.763Z,97755.69
2022-11-13T21:00:45.430Z,97760.59
2022-11-13T21:03:50.852Z,97763.47
2022-11-13T21:06:55.126Z,97768.16
2022-11-13T21:09:59.139Z,97767.97
2022-11-13T21:13:03.211Z,97759.66
2022-11-13T21:16:09.021Z,97761.50
2022-11-13T21:19:13.343Z,97758.22
2022-11-13T21:22:17.790Z,97760.06
2022-11-13T21:25:23.208Z,97757.81
2022-11-13T21:28:32.320Z,97752.94
2022-11-13T21:31:37.857Z,97763.81
2022-11-13T21:34:42.308Z,97756.47
2022-11-13T21:37:46.585Z,97762.13
2022-11-13T21:41:18.622Z,97749.78
2022-11-13T21:44:23.295Z,97752.41
2022-11-13T21:47:27.616Z,97747.53
2022-11-13T21:50:31.969Z,97741.84
2022-11-13T21:53:37.998Z,97727.06
2022-11-13T21:56:42.362Z,97726.06
2022-11-13T21:59:46.782Z,97725.63
2022-11-13T22:02:51.163Z,97732.72
2022-11-13T22:06:19.526Z,97725.97
2022-11-13T22:09:25.605Z,97729.44
2022-11-13T22:12:29.618Z,97735.69
2022-11-13T22:15:33.907Z,97731.06
2022-11-13T22:18:38.139Z,97728.03
2022-11-13T22:21:43.436Z,97724.63
2022-11-13T22:24:48.124Z,97713.44
2022-11-13T22:27:52.234Z,97723.19
2022-11-13T22:30:56.607Z,97711.03
2022-11-13T22:34:02.017Z,97710.19
2022-11-13T22:37:06.227Z,97710.19
2022-11-13T22:40:11.257Z,97708.59
2022-11-13T22:43:15.783Z,97708.59
2022-11-13T22:46:22.910Z,97707.75
2022-11-13T22:49:27.095Z,97692.78
2022-11-13T22:52:31.323Z,97691.78
2022-11-13T22:55:35.749Z,97688.34
2022-11-13T22:58:40.570Z,97677.19
2022-11-13T23:01:46.539Z,97671.47
2022-11-13T23:04:50.638Z,97668.25
2022-11-13T23:07:54.937Z,97664.78
2022-11-13T23:10:59.371Z,97663.97
2022-11-13T23:14:06.393Z,97660.72
2022-11-13T23:17:10.611Z,97655.25
2022-11-13T23:20:15.017Z,97648.75
2022-11-13T23:23:19.360Z,97646.31
2022-11-13T23:26:24.913Z,97661.09
2022-11-13T23:29:29.445Z,97657.84
2022-11-13T23:32:34.010Z,97652.59
2022-11-13T23:35:38.510Z,97651.78
2022-11-13T23:38:42.829Z,97650.94
2022-11-13T23:41:47.076Z,97660.03
2022-11-13T23:44:51.434Z,97648.88
2022-11-13T23:47:55.829Z,97647.25
2022-11-13T23:51:01.668Z,97654.13
2022-11-13T23:54:06.064Z,97644.44
2022-11-13T23:57:10.618Z,97647.53
